sensor_id;sensor_type;location;lat;lon;timestamp;temperature;humidity
51739;DHT22;37815;52.692;6.226;2024-01-30T00:02:32;8.60;99.90
51739;DHT22;37815;52.692;6.226;2024-01-30T00:07:32;8.60;99.90
51739;DHT22;37815;52.692;6.226;2024-01-30T00:12:33;8.60;99.90
51739;DHT22;37815;52.692;6.226;2024-01-30T00:17:33;8.60;99.90
51739;DHT22;37815;52.692;6.226;2024-01-30T00:22:34;8.60;99.90
51739;DHT22;37815;52.692;6.226;2024-01-30T00:27:35;8.60;99.90
51739;DHT22;37815;52.692;6.226;2024-01-30T00:32:35;8.50;99.90
51739;DHT22;37815;52.692;6.226;2024-01-30T00:37:36;8.50;99.90
51739;DHT22;37815;52.692;6.226;2024-01-30T00:42:36;8.50;99.90
51739;DHT22;37815;52.692;6.226;2024-01-30T00:47:37;8.50;99.90
51739;DHT22;37815;52.692;6.226;2024-01-30T00:52:37;8.50;99.90
51739;DHT22;37815;52.692;6.226;2024-01-30T00:57:39;8.50;99.90
51739;DHT22;37815;52.692;6.226;2024-01-30T01:02:40;8.50;99.90
51739;DHT22;37815;52.692;6.226;2024-01-30T01:07:40;8.50;99.90
51739;DHT22;37815;52.692;6.226;2024-01-30T01:12:43;8.50;99.90
51739;DHT22;37815;52.692;6.226;2024-01-30T01:17:44;8.40;99.90
51739;DHT22;37815;52.692;6.226;2024-01-30T01:22:44;8.50;99.90
51739;DHT22;37815;52.692;6.226;2024-01-30T01:27:45;8.50;99.90
51739;DHT22;37815;52.692;6.226;2024-01-30T01:32:51;8.40;99.90
51739;DHT22;37815;52.692;6.226;2024-01-30T01:37:55;8.40;99.90
51739;DHT22;37815;52.692;6.226;2024-01-30T01:42:56;8.40;99.90
51739;DHT22;37815;52.692;6.226;2024-01-30T01:47:56;8.40;99.90
51739;DHT22;37815;52.692;6.226;2024-01-30T01:52:57;8.40;99.90
51739;DHT22;37815;52.692;6.226;2024-01-30T01:57:59;8.40;99.90
51739;DHT22;37815;52.692;6.226;2024-01-30T02:03:00;8.40;99.90
51739;DHT22;37815;52.692;6.226;2024-01-30T02:08:01;8.40;99.90
51739;DHT22;37815;52.692;6.226;2024-01-30T02:13:01;8.40;99.90
51739;DHT22;37815;52.692;6.226;2024-01-30T02:18:02;8.30;99.90
51739;DHT22;37815;52.692;6.226;2024-01-30T02:23:04;8.30;99.90
51739;DHT22;37815;52.692;6.226;2024-01-30T02:28:05;8.30;99.90
51739;DHT22;37815;52.692;6.226;2024-01-30T02:33:06;8.30;99.90
51739;DHT22;37815;52.692;6.226;2024-01-30T02:38:06;8.30;99.90
51739;DHT22;37815;52.692;6.226;2024-01-30T02:43:07;8.30;99.90
51739;DHT22;37815;52.692;6.226;2024-01-30T02:48:07;8.30;99.90
51739;DHT22;37815;52.692;6.226;2024-01-30T02:53:08;8.30;99.90
51739;DHT22;37815;52.692;6.226;2024-01-30T02:58:09;8.30;99.90
51739;DHT22;37815;52.692;6.226;2024-01-30T03:03:09;8.30;99.90
51739;DHT22;37815;52.692;6.226;2024-01-30T03:08:10;8.30;99.90
51739;DHT22;37815;52.692;6.226;2024-01-30T03:13:10;8.30;99.90
51739;DHT22;37815;52.692;6.226;2024-01-30T03:18:11;8.30;99.90
51739;DHT22;37815;52.692;6.226;2024-01-30T03:23:12;8.30;99.90
51739;DHT22;37815;52.692;6.226;2024-01-30T03:28:12;8.30;99.90
51739;DHT22;37815;52.692;6.226;2024-01-30T03:33:13;8.20;99.90
51739;DHT22;37815;52.692;6.226;2024-01-30T03:38:13;8.20;99.90
51739;DHT22;37815;52.692;6.226;2024-01-30T03:43:14;8.20;99.90
51739;DHT22;37815;52.692;6.226;2024-01-30T03:48:15;8.20;99.90
51739;DHT22;37815;52.692;6.226;2024-01-30T03:53:15;9.30;99.90
51739;DHT22;37815;52.692;6.226;2024-01-30T03:58:16;8.20;99.90
51739;DHT22;37815;52.692;6.226;2024-01-30T04:03:17;8.20;99.90
51739;DHT22;37815;52.692;6.226;2024-01-30T04:08:17;8.20;99.90
51739;DHT22;37815;52.692;6.226;2024-01-30T04:13:18;8.20;99.90
51739;DHT22;37815;52.692;6.226;2024-01-30T04:18:18;8.20;99.90
51739;DHT22;37815;52.692;6.226;2024-01-30T04:23:19;8.20;99.90
51739;DHT22;37815;52.692;6.226;2024-01-30T04:28:20;8.20;99.90
51739;DHT22;37815;52.692;6.226;2024-01-30T04:33:20;8.20;99.90
51739;DHT22;37815;52.692;6.226;2024-01-30T04:38:21;8.20;99.90
51739;DHT22;37815;52.692;6.226;2024-01-30T04:43:21;8.20;99.90
51739;DHT22;37815;52.692;6.226;2024-01-30T04:48:22;8.20;99.90
51739;DHT22;37815;52.692;6.226;2024-01-30T04:53:23;8.20;99.90
51739;DHT22;37815;52.692;6.226;2024-01-30T04:58:23;8.20;99.90
51739;DHT22;37815;52.692;6.226;2024-01-30T05:03:24;8.20;99.90
51739;DHT22;37815;52.692;6.226;2024-01-30T05:08:24;8.20;99.90
51739;DHT22;37815;52.692;6.226;2024-01-30T05:13:25;8.20;99.90
51739;DHT22;37815;52.692;6.226;2024-01-30T05:18:25;8.20;99.90
51739;DHT22;37815;52.692;6.226;2024-01-30T05:23:26;8.20;99.90
51739;DHT22;37815;52.692;6.226;2024-01-30T05:28:27;8.20;99.90
51739;DHT22;37815;52.692;6.226;2024-01-30T05:33:27;8.30;99.90
51739;DHT22;37815;52.692;6.226;2024-01-30T05:38:31;8.20;99.90
51739;DHT22;37815;52.692;6.226;2024-01-30T05:43:32;8.20;99.90
51739;DHT22;37815;52.692;6.226;2024-01-30T05:48:33;8.20;99.90
51739;DHT22;37815;52.692;6.226;2024-01-30T05:53:35;8.20;99.90
51739;DHT22;37815;52.692;6.226;2024-01-30T05:58:36;8.30;99.90
51739;DHT22;37815;52.692;6.226;2024-01-30T06:03:37;8.30;99.90
51739;DHT22;37815;52.692;6.226;2024-01-30T06:08:39;8.30;99.90
51739;DHT22;37815;52.692;6.226;2024-01-30T06:13:39;8.30;99.90
51739;DHT22;37815;52.692;6.226;2024-01-30T06:18:40;8.30;99.90
51739;DHT22;37815;52.692;6.226;2024-01-30T06:23:40;8.30;99.90
51739;DHT22;37815;52.692;6.226;2024-01-30T06:28:41;8.40;99.90
51739;DHT22;37815;52.692;6.226;2024-01-30T06:33:42;8.40;99.90
51739;DHT22;37815;52.692;6.226;2024-01-30T06:38:42;8.40;99.90
51739;DHT22;37815;52.692;6.226;2024-01-30T06:43:43;8.40;99.90
51739;DHT22;37815;52.692;6.226;2024-01-30T06:48:45;8.40;99.90
51739;DHT22;37815;52.692;6.226;2024-01-30T06:53:46;8.40;99.90
51739;DHT22;37815;52.692;6.226;2024-01-30T06:58:50;8.40;99.90
51739;DHT22;37815;52.692;6.226;2024-01-30T07:03:50;8.50;99.90
51739;DHT22;37815;52.692;6.226;2024-01-30T07:08:51;8.50;99.90
51739;DHT22;37815;52.692;6.226;2024-01-30T07:13:51;8.50;99.90
51739;DHT22;37815;52.692;6.226;2024-01-30T07:18:52;8.50;99.90
51739;DHT22;37815;52.692;6.226;2024-01-30T07:23:56;8.40;99.90
51739;DHT22;37815;52.692;6.226;2024-01-30T07:28:57;8.40;99.90
51739;DHT22;37815;52.692;6.226;2024-01-30T07:33:57;8.40;99.90
51739;DHT22;37815;52.692;6.226;2024-01-30T07:38:58;8.50;99.90
51739;DHT22;37815;52.692;6.226;2024-01-30T07:43:59;8.50;99.90
51739;DHT22;37815;52.692;6.226;2024-01-30T07:48:59;8.50;99.90
51739;DHT22;37815;52.692;6.226;2024-01-30T07:54:00;8.50;99.90
51739;DHT22;37815;52.692;6.226;2024-01-30T07:59:01;8.50;99.90
51739;DHT22;37815;52.692;6.226;2024-01-30T08:04:01;8.50;99.90
51739;DHT22;37815;52.692;6.226;2024-01-30T08:09:02;8.50;99.90
51739;DHT22;37815;52.692;6.226;2024-01-30T08:14:03;8.50;99.90
51739;DHT22;37815;52.692;6.226;2024-01-30T08:19:03;8.50;99.90
51739;DHT22;37815;52.692;6.226;2024-01-30T08:24:04;8.50;99.90
51739;DHT22;37815;52.692;6.226;2024-01-30T08:29:05;8.50;99.90
51739;DHT22;37815;52.692;6.226;2024-01-30T08:34:06;8.60;99.90
51739;DHT22;37815;52.692;6.226;2024-01-30T08:39:07;8.60;99.90
51739;DHT22;37815;52.692;6.226;2024-01-30T08:44:07;8.60;99.90
51739;DHT22;37815;52.692;6.226;2024-01-30T08:49:08;8.60;99.90
51739;DHT22;37815;52.692;6.226;2024-01-30T08:54:09;8.60;99.90
51739;DHT22;37815;52.692;6.226;2024-01-30T08:59:09;8.60;99.90
51739;DHT22;37815;52.692;6.226;2024-01-30T09:04:10;8.60;99.90
51739;DHT22;37815;52.692;6.226;2024-01-30T09:09:10;8.70;99.90
51739;DHT22;37815;52.692;6.226;2024-01-30T09:14:11;8.70;99.90
51739;DHT22;37815;52.692;6.226;2024-01-30T09:19:12;8.70;99.90
51739;DHT22;37815;52.692;6.226;2024-01-30T09:24:13;8.70;99.90
51739;DHT22;37815;52.692;6.226;2024-01-30T09:29:13;8.70;99.90
51739;DHT22;37815;52.692;6.226;2024-01-30T09:34:14;8.70;99.90
51739;DHT22;37815;52.692;6.226;2024-01-30T09:39:14;8.80;99.90
51739;DHT22;37815;52.692;6.226;2024-01-30T09:44:16;8.80;99.90
51739;DHT22;37815;52.692;6.226;2024-01-30T09:49:18;8.80;99.90
51739;DHT22;37815;52.692;6.226;2024-01-30T09:54:19;8.80;99.90
51739;DHT22;37815;52.692;6.226;2024-01-30T09:59:20;8.80;99.90
51739;DHT22;37815;52.692;6.226;2024-01-30T10:04:21;8.80;99.90
51739;DHT22;37815;52.692;6.226;2024-01-30T10:09:21;8.80;99.90
51739;DHT22;37815;52.692;6.226;2024-01-30T10:14:22;8.90;99.90
51739;DHT22;37815;52.692;6.226;2024-01-30T10:19:23;8.90;99.90
51739;DHT22;37815;52.692;6.226;2024-01-30T10:24:26;8.90;99.90
51739;DHT22;37815;52.692;6.226;2024-01-30T10:29:27;8.90;99.90
51739;DHT22;37815;52.692;6.226;2024-01-30T10:34:28;9.00;99.90
51739;DHT22;37815;52.692;6.226;2024-01-30T10:39:29;9.00;99.90
51739;DHT22;37815;52.692;6.226;2024-01-30T10:44:39;9.00;99.90
51739;DHT22;37815;52.692;6.226;2024-01-30T10:49:44;9.00;99.90
51739;DHT22;37815;52.692;6.226;2024-01-30T10:54:47;9.00;99.90
51739;DHT22;37815;52.692;6.226;2024-01-30T10:59:48;9.10;99.90
51739;DHT22;37815;52.692;6.226;2024-01-30T11:04:50;9.10;99.90
51739;DHT22;37815;52.692;6.226;2024-01-30T11:10:00;9.10;99.90
51739;DHT22;37815;52.692;6.226;2024-01-30T11:15:09;9.10;99.90
51739;DHT22;37815;52.692;6.226;2024-01-30T11:20:11;9.10;99.90
51739;DHT22;37815;52.692;6.226;2024-01-30T11:25:16;9.20;99.90
51739;DHT22;37815;52.692;6.226;2024-01-30T11:30:31;9.20;99.90
51739;DHT22;37815;52.692;6.226;2024-01-30T11:35:33;9.30;99.90
51739;DHT22;37815;52.692;6.226;2024-01-30T11:40:35;9.30;99.90
51739;DHT22;37815;52.692;6.226;2024-01-30T11:45:36;9.30;99.90
51739;DHT22;37815;52.692;6.226;2024-01-30T11:50:38;9.30;99.90
51739;DHT22;37815;52.692;6.226;2024-01-30T11:55:39;9.40;99.90
51739;DHT22;37815;52.692;6.226;2024-01-30T12:00:40;9.40;99.90
51739;DHT22;37815;52.692;6.226;2024-01-30T12:05:40;9.40;99.90
51739;DHT22;37815;52.692;6.226;2024-01-30T12:10:43;9.40;99.90
51739;DHT22;37815;52.692;6.226;2024-01-30T12:15:44;9.40;99.90
51739;DHT22;37815;52.692;6.226;2024-01-30T12:20:44;9.50;99.90
51739;DHT22;37815;52.692;6.226;2024-01-30T12:25:45;9.50;99.90
51739;DHT22;37815;52.692;6.226;2024-01-30T12:30:46;9.50;99.90
51739;DHT22;37815;52.692;6.226;2024-01-30T12:35:47;9.50;99.90
51739;DHT22;37815;52.692;6.226;2024-01-30T12:40:56;9.50;99.90
51739;DHT22;37815;52.692;6.226;2024-01-30T12:45:58;9.50;99.90
51739;DHT22;37815;52.692;6.226;2024-01-30T12:50:59;9.50;99.90
51739;DHT22;37815;52.692;6.226;2024-01-30T12:56:00;9.50;99.90
51739;DHT22;37815;52.692;6.226;2024-01-30T13:01:01;9.50;99.90
51739;DHT22;37815;52.692;6.226;2024-01-30T13:06:01;9.50;99.90
51739;DHT22;37815;52.692;6.226;2024-01-30T13:11:02;9.50;99.90
51739;DHT22;37815;52.692;6.226;2024-01-30T13:16:03;9.50;99.90
51739;DHT22;37815;52.692;6.226;2024-01-30T13:21:04;9.50;99.90
51739;DHT22;37815;52.692;6.226;2024-01-30T13:26:05;9.50;99.90
51739;DHT22;37815;52.692;6.226;2024-01-30T13:31:06;9.50;99.90
51739;DHT22;37815;52.692;6.226;2024-01-30T13:36:08;9.50;99.90
51739;DHT22;37815;52.692;6.226;2024-01-30T13:41:09;9.50;99.90
51739;DHT22;37815;52.692;6.226;2024-01-30T13:46:10;9.50;99.90
51739;DHT22;37815;52.692;6.226;2024-01-30T13:51:10;9.60;99.90
51739;DHT22;37815;52.692;6.226;2024-01-30T13:56:13;9.60;99.90
51739;DHT22;37815;52.692;6.226;2024-01-30T14:01:13;9.60;99.90
51739;DHT22;37815;52.692;6.226;2024-01-30T14:06:14;9.60;99.90
51739;DHT22;37815;52.692;6.226;2024-01-30T14:11:15;9.60;99.90
51739;DHT22;37815;52.692;6.226;2024-01-30T14:16:15;9.60;99.90
51739;DHT22;37815;52.692;6.226;2024-01-30T14:21:16;9.60;99.90
51739;DHT22;37815;52.692;6.226;2024-01-30T14:26:16;9.60;99.90
51739;DHT22;37815;52.692;6.226;2024-01-30T14:31:17;9.60;99.90
51739;DHT22;37815;52.692;6.226;2024-01-30T14:36:19;9.60;99.90
51739;DHT22;37815;52.692;6.226;2024-01-30T14:41:20;9.60;99.90
51739;DHT22;37815;52.692;6.226;2024-01-30T14:46:21;9.60;99.90
51739;DHT22;37815;52.692;6.226;2024-01-30T14:51:26;9.60;99.90
51739;DHT22;37815;52.692;6.226;2024-01-30T14:56:27;9.60;99.90
51739;DHT22;37815;52.692;6.226;2024-01-30T15:01:28;9.60;99.90
51739;DHT22;37815;52.692;6.226;2024-01-30T15:06:28;9.60;99.90
51739;DHT22;37815;52.692;6.226;2024-01-30T15:11:29;9.60;99.90
51739;DHT22;37815;52.692;6.226;2024-01-30T15:16:31;9.60;99.90
51739;DHT22;37815;52.692;6.226;2024-01-30T15:21:32;9.60;99.90
51739;DHT22;37815;52.692;6.226;2024-01-30T15:26:32;9.60;99.90
51739;DHT22;37815;52.692;6.226;2024-01-30T15:31:33;9.50;99.90
51739;DHT22;37815;52.692;6.226;2024-01-30T15:36:34;9.50;99.90
51739;DHT22;37815;52.692;6.226;2024-01-30T15:41:34;9.50;99.90
51739;DHT22;37815;52.692;6.226;2024-01-30T15:46:35;9.50;99.90
51739;DHT22;37815;52.692;6.226;2024-01-30T15:51:35;9.50;99.90
51739;DHT22;37815;52.692;6.226;2024-01-30T15:56:36;9.50;99.90
51739;DHT22;37815;52.692;6.226;2024-01-30T16:01:36;9.50;99.90
51739;DHT22;37815;52.692;6.226;2024-01-30T16:06:37;9.50;99.90
51739;DHT22;37815;52.692;6.226;2024-01-30T16:11:38;9.50;99.90
51739;DHT22;37815;52.692;6.226;2024-01-30T16:16:39;9.50;99.90
51739;DHT22;37815;52.692;6.226;2024-01-30T16:21:39;9.50;99.90
51739;DHT22;37815;52.692;6.226;2024-01-30T16:26:43;9.60;99.90
51739;DHT22;37815;52.692;6.226;2024-01-30T16:31:44;9.50;99.90
51739;DHT22;37815;52.692;6.226;2024-01-30T16:36:45;9.60;99.90
51739;DHT22;37815;52.692;6.226;2024-01-30T16:41:45;9.50;99.90
51739;DHT22;37815;52.692;6.226;2024-01-30T16:46:46;9.50;99.90
51739;DHT22;37815;52.692;6.226;2024-01-30T16:51:46;9.50;99.90
51739;DHT22;37815;52.692;6.226;2024-01-30T16:56:47;9.50;99.90
51739;DHT22;37815;52.692;6.226;2024-01-30T17:01:48;9.50;99.90
51739;DHT22;37815;52.692;6.226;2024-01-30T17:06:49;9.50;99.90
51739;DHT22;37815;52.692;6.226;2024-01-30T17:11:49;9.50;99.90
51739;DHT22;37815;52.692;6.226;2024-01-30T17:16:50;10.20;99.90
51739;DHT22;37815;52.692;6.226;2024-01-30T17:21:52;9.50;99.90
51739;DHT22;37815;52.692;6.226;2024-01-30T17:26:53;9.50;99.90
51739;DHT22;37815;52.692;6.226;2024-01-30T17:31:53;9.50;99.90
51739;DHT22;37815;52.692;6.226;2024-01-30T17:36:54;9.50;99.90
51739;DHT22;37815;52.692;6.226;2024-01-30T17:41:55;9.50;99.90
51739;DHT22;37815;52.692;6.226;2024-01-30T17:46:55;9.50;99.90
51739;DHT22;37815;52.692;6.226;2024-01-30T17:51:56;9.60;99.90
51739;DHT22;37815;52.692;6.226;2024-01-30T17:56:57;9.60;99.90
51739;DHT22;37815;52.692;6.226;2024-01-30T18:01:57;9.60;99.90
51739;DHT22;37815;52.692;6.226;2024-01-30T18:06:58;9.60;99.90
51739;DHT22;37815;52.692;6.226;2024-01-30T18:11:58;9.50;99.90
51739;DHT22;37815;52.692;6.226;2024-01-30T18:16:59;9.50;99.90
51739;DHT22;37815;52.692;6.226;2024-01-30T18:21:59;9.50;99.90
51739;DHT22;37815;52.692;6.226;2024-01-30T18:27:00;10.30;99.90
51739;DHT22;37815;52.692;6.226;2024-01-30T18:32:01;9.50;99.90
51739;DHT22;37815;52.692;6.226;2024-01-30T18:37:01;9.50;99.90
51739;DHT22;37815;52.692;6.226;2024-01-30T18:42:02;9.40;99.90
51739;DHT22;37815;52.692;6.226;2024-01-30T18:47:03;9.50;99.90
51739;DHT22;37815;52.692;6.226;2024-01-30T18:52:04;9.50;99.90
51739;DHT22;37815;52.692;6.226;2024-01-30T18:57:05;9.50;99.90
51739;DHT22;37815;52.692;6.226;2024-01-30T19:02:06;9.40;99.90
51739;DHT22;37815;52.692;6.226;2024-01-30T19:07:07;9.50;99.90
51739;DHT22;37815;52.692;6.226;2024-01-30T19:12:07;9.50;99.90
51739;DHT22;37815;52.692;6.226;2024-01-30T19:17:08;9.40;99.90
51739;DHT22;37815;52.692;6.226;2024-01-30T19:22:08;9.40;99.90
51739;DHT22;37815;52.692;6.226;2024-01-30T19:27:09;9.70;99.90
51739;DHT22;37815;52.692;6.226;2024-01-30T19:32:10;9.40;99.90
51739;DHT22;37815;52.692;6.226;2024-01-30T19:37:10;9.40;99.90
51739;DHT22;37815;52.692;6.226;2024-01-30T19:42:11;9.40;99.90
51739;DHT22;37815;52.692;6.226;2024-01-30T19:47:11;9.40;99.90
51739;DHT22;37815;52.692;6.226;2024-01-30T19:52:12;9.40;99.90
51739;DHT22;37815;52.692;6.226;2024-01-30T19:57:14;9.40;99.90
51739;DHT22;37815;52.692;6.226;2024-01-30T20:02:15;9.40;99.90
51739;DHT22;37815;52.692;6.226;2024-01-30T20:07:20;9.40;99.90
51739;DHT22;37815;52.692;6.226;2024-01-30T20:12:20;9.40;99.90
51739;DHT22;37815;52.692;6.226;2024-01-30T20:17:21;9.40;99.90
51739;DHT22;37815;52.692;6.226;2024-01-30T20:22:21;9.50;99.90
51739;DHT22;37815;52.692;6.226;2024-01-30T20:27:22;9.50;99.90
51739;DHT22;37815;52.692;6.226;2024-01-30T20:32:23;9.40;99.90
51739;DHT22;37815;52.692;6.226;2024-01-30T20:37:24;9.50;99.90
51739;DHT22;37815;52.692;6.226;2024-01-30T20:42:25;9.40;99.90
51739;DHT22;37815;52.692;6.226;2024-01-30T20:47:26;9.40;99.90
51739;DHT22;37815;52.692;6.226;2024-01-30T20:52:26;9.40;99.90
51739;DHT22;37815;52.692;6.226;2024-01-30T20:57:27;9.50;99.90
51739;DHT22;37815;52.692;6.226;2024-01-30T21:02:27;9.50;99.90
51739;DHT22;37815;52.692;6.226;2024-01-30T21:07:28;9.50;99.90
51739;DHT22;37815;52.692;6.226;2024-01-30T21:12:28;9.50;99.90
51739;DHT22;37815;52.692;6.226;2024-01-30T21:17:29;9.50;99.90
51739;DHT22;37815;52.692;6.226;2024-01-30T21:22:30;9.50;99.90
51739;DHT22;37815;52.692;6.226;2024-01-30T21:27:31;9.50;99.90
51739;DHT22;37815;52.692;6.226;2024-01-30T21:32:31;9.50;99.90
51739;DHT22;37815;52.692;6.226;2024-01-30T21:37:32;9.50;99.90
51739;DHT22;37815;52.692;6.226;2024-01-30T21:42:36;9.50;99.90
51739;DHT22;37815;52.692;6.226;2024-01-30T21:47:38;9.40;99.90
51739;DHT22;37815;52.692;6.226;2024-01-30T21:52:38;9.40;99.90
51739;DHT22;37815;52.692;6.226;2024-01-30T21:57:39;9.50;99.90
51739;DHT22;37815;52.692;6.226;2024-01-30T22:02:39;9.50;99.90
51739;DHT22;37815;52.692;6.226;2024-01-30T22:07:40;9.40;99.90
51739;DHT22;37815;52.692;6.226;2024-01-30T22:12:42;9.40;99.90
51739;DHT22;37815;52.692;6.226;2024-01-30T22:17:42;9.40;99.90
51739;DHT22;37815;52.692;6.226;2024-01-30T22:22:43;9.40;99.90
51739;DHT22;37815;52.692;6.226;2024-01-30T22:27:43;9.40;99.90
51739;DHT22;37815;52.692;6.226;2024-01-30T22:32:44;9.30;99.90
51739;DHT22;37815;52.692;6.226;2024-01-30T22:37:45;9.30;99.90
51739;DHT22;37815;52.692;6.226;2024-01-30T22:42:45;9.30;99.90
51739;DHT22;37815;52.692;6.226;2024-01-30T22:47:46;9.30;99.90
51739;DHT22;37815;52.692;6.226;2024-01-30T22:52:47;9.30;99.90
51739;DHT22;37815;52.692;6.226;2024-01-30T22:57:47;9.20;99.90
51739;DHT22;37815;52.692;6.226;2024-01-30T23:02:48;9.20;99.90
51739;DHT22;37815;52.692;6.226;2024-01-30T23:07:49;9.20;99.90
51739;DHT22;37815;52.692;6.226;2024-01-30T23:12:50;9.20;99.90
51739;DHT22;37815;52.692;6.226;2024-01-30T23:17:51;9.20;99.90
51739;DHT22;37815;52.692;6.226;2024-01-30T23:22:52;9.20;99.90
51739;DHT22;37815;52.692;6.226;2024-01-30T23:27:53;9.20;99.90
51739;DHT22;37815;52.692;6.226;2024-01-30T23:32:53;9.10;99.90
51739;DHT22;37815;52.692;6.226;2024-01-30T23:37:54;9.20;99.90
51739;DHT22;37815;52.692;6.226;2024-01-30T23:42:55;9.10;99.90
51739;DHT22;37815;52.692;6.226;2024-01-30T23:47:55;9.10;99.90
51739;DHT22;37815;52.692;6.226;2024-01-30T23:52:56;9.10;99.90
51739;DHT22;37815;52.692;6.226;2024-01-30T23:57:57;9.10;99.90
